createdAt,value
2023-09-15T00:01:09.959Z,15.77
2023-09-15T00:03:37.699Z,15.75
2023-09-15T00:06:06.090Z,15.75
2023-09-15T00:08:35.065Z,15.80
2023-09-15T00:11:02.686Z,15.78
2023-09-15T00:13:30.401Z,15.65
2023-09-15T00:15:59.900Z,15.55
2023-09-15T00:18:27.632Z,15.55
2023-09-15T00:20:55.300Z,15.60
2023-09-15T00:23:22.946Z,15.61
2023-09-15T00:25:53.323Z,15.56
2023-09-15T00:28:20.966Z,15.51
2023-09-15T00:30:51.249Z,15.43
2023-09-15T00:33:21.134Z,15.29
2023-09-15T00:35:48.800Z,15.29
2023-09-15T00:38:16.625Z,15.24
2023-09-15T00:40:44.259Z,15.19
2023-09-15T00:43:11.904Z,15.26
2023-09-15T00:45:40.287Z,15.19
2023-09-15T00:48:09.607Z,15.23
2023-09-15T00:50:38.555Z,15.14
2023-09-15T00:53:11.792Z,15.17
2023-09-15T00:55:40.632Z,15.22
2023-09-15T00:58:12.782Z,15.21
2023-09-15T01:00:43.107Z,15.08
2023-09-15T01:03:13.055Z,15.10
2023-09-15T01:05:44.493Z,15.08
2023-09-15T01:08:12.161Z,15.08
2023-09-15T01:10:39.971Z,15.13
2023-09-15T01:13:08.331Z,15.14
2023-09-15T01:15:41.674Z,15.18
2023-09-15T01:18:18.102Z,15.19
2023-09-15T01:21:19.058Z,15.16
2023-09-15T01:24:09.734Z,15.14
2023-09-15T01:26:53.191Z,15.06
2023-09-15T01:29:47.311Z,15.08
2023-09-15T01:32:19.892Z,15.13
2023-09-15T01:34:48.992Z,15.14
2023-09-15T01:37:16.827Z,15.02
2023-09-15T01:39:44.684Z,14.93
2023-09-15T01:42:12.651Z,14.89
2023-09-15T01:44:40.369Z,14.84
2023-09-15T01:47:10.520Z,14.87
2023-09-15T01:49:40.376Z,14.69
2023-09-15T01:52:09.541Z,14.52
2023-09-15T01:54:37.219Z,14.41
2023-09-15T01:57:05.347Z,14.38
2023-09-15T01:59:33.903Z,14.25
2023-09-15T02:02:01.612Z,14.21
2023-09-15T02:04:30.733Z,14.09
2023-09-15T02:06:58.911Z,14.16
2023-09-15T02:09:26.540Z,14.20
2023-09-15T02:11:54.293Z,14.28
2023-09-15T02:14:21.932Z,14.48
2023-09-15T02:16:52.756Z,14.50
2023-09-15T02:19:20.853Z,14.54
2023-09-15T02:21:49.829Z,14.59
2023-09-15T02:24:17.448Z,14.40
2023-09-15T02:26:45.308Z,14.57
2023-09-15T02:29:12.891Z,14.58
2023-09-15T02:31:41.364Z,14.59
2023-09-15T02:34:09.331Z,14.55
2023-09-15T02:36:36.955Z,14.49
2023-09-15T02:39:06.023Z,14.48
2023-09-15T02:41:35.026Z,14.51
2023-09-15T02:44:03.591Z,14.48
2023-09-15T02:46:31.590Z,14.49
2023-09-15T02:49:00.074Z,14.58
2023-09-15T02:51:28.110Z,14.54
2023-09-15T02:53:55.871Z,14.47
2023-09-15T02:56:25.050Z,14.45
2023-09-15T02:58:53.442Z,14.35
2023-09-15T03:01:21.745Z,14.34
2023-09-15T03:03:51.512Z,14.36
2023-09-15T03:06:19.995Z,14.36
2023-09-15T03:08:48.017Z,14.35
2023-09-15T03:11:18.082Z,14.17
2023-09-15T03:13:48.188Z,14.23
2023-09-15T03:16:17.329Z,14.25
2023-09-15T03:18:48.135Z,14.40
2023-09-15T03:21:18.475Z,14.45
2023-09-15T03:23:46.178Z,14.45
2023-09-15T03:26:14.767Z,14.53
2023-09-15T03:28:47.945Z,14.53
2023-09-15T03:31:15.874Z,14.57
2023-09-15T03:33:43.539Z,14.50
2023-09-15T03:36:13.211Z,14.45
2023-09-15T03:38:41.894Z,14.42
2023-09-15T03:41:09.664Z,14.42
2023-09-15T03:43:37.354Z,14.34
2023-09-15T03:46:09.369Z,14.39
2023-09-15T03:48:37.906Z,14.40
2023-09-15T03:51:05.611Z,14.33
2023-09-15T03:53:33.381Z,14.27
2023-09-15T03:56:01.486Z,14.22
2023-09-15T03:58:31.015Z,14.26
2023-09-15T04:00:58.777Z,14.33
2023-09-15T04:03:27.910Z,14.27
2023-09-15T04:05:55.617Z,14.29
2023-09-15T04:08:23.259Z,14.39
2023-09-15T04:10:50.991Z,14.44
2023-09-15T04:13:18.646Z,14.29
2023-09-15T04:15:46.323Z,14.32
2023-09-15T04:18:13.948Z,14.34
2023-09-15T04:20:46.634Z,14.36
2023-09-15T04:23:15.473Z,14.24
2023-09-15T04:25:43.880Z,14.26
2023-09-15T04:28:11.765Z,14.19
2023-09-15T04:30:39.483Z,14.12
2023-09-15T04:33:07.382Z,14.14
2023-09-15T04:35:35.106Z,14.13
2023-09-15T04:38:04.493Z,14.13
2023-09-15T04:40:32.361Z,14.21
2023-09-15T04:43:00.921Z,14.19
2023-09-15T04:45:30.518Z,14.22
2023-09-15T04:47:58.853Z,14.15
2023-09-15T04:50:26.647Z,14.17
2023-09-15T04:52:54.358Z,14.17
2023-09-15T04:55:23.544Z,14.17
2023-09-15T04:57:52.585Z,14.16
2023-09-15T05:00:24.897Z,14.14
2023-09-15T05:03:00.310Z,14.17
2023-09-15T05:05:29.747Z,14.18
2023-09-15T05:07:58.292Z,14.19
2023-09-15T05:10:28.287Z,14.14
2023-09-15T05:12:57.181Z,14.03
2023-09-15T05:15:25.459Z,13.98
2023-09-15T05:17:53.262Z,13.95
2023-09-15T05:20:21.046Z,13.86
2023-09-15T05:22:49.227Z,13.82
2023-09-15T05:25:17.301Z,13.93
2023-09-15T05:27:46.833Z,13.94
2023-09-15T05:30:16.174Z,13.96
2023-09-15T05:32:44.643Z,13.87
2023-09-15T05:35:12.736Z,13.82
2023-09-15T05:37:40.600Z,13.79
2023-09-15T05:40:09.527Z,13.59
2023-09-15T05:42:37.343Z,13.63
2023-09-15T05:45:07.763Z,13.49
2023-09-15T05:47:35.449Z,13.41
2023-09-15T05:50:05.465Z,13.30
2023-09-15T05:52:33.291Z,13.18
2023-09-15T05:55:00.974Z,13.13
2023-09-15T05:57:28.690Z,13.25
2023-09-15T05:59:56.242Z,13.30
2023-09-15T06:02:25.327Z,13.34
2023-09-15T06:04:53.073Z,13.43
2023-09-15T06:07:21.566Z,13.45
2023-09-15T06:09:49.507Z,13.50
2023-09-15T06:12:17.129Z,13.48
2023-09-15T06:14:44.826Z,13.52
2023-09-15T06:17:13.557Z,13.58
2023-09-15T06:19:42.743Z,13.55
2023-09-15T06:22:10.406Z,13.53
2023-09-15T06:24:38.070Z,13.54
2023-09-15T06:27:06.116Z,13.67
2023-09-15T06:29:34.865Z,13.96
2023-09-15T06:32:02.561Z,14.18
2023-09-15T06:34:30.236Z,14.29
2023-09-15T06:36:59.215Z,14.32
2023-09-15T06:39:27.841Z,14.42
2023-09-15T06:41:55.579Z,14.60
2023-09-15T06:44:24.467Z,14.84
2023-09-15T06:46:52.278Z,15.04
2023-09-15T06:49:22.928Z,15.15
2023-09-15T06:51:51.076Z,15.26
2023-09-15T06:54:20.032Z,15.49
2023-09-15T06:56:47.650Z,15.46
2023-09-15T06:59:15.595Z,15.49
2023-09-15T07:01:43.219Z,15.43
2023-09-15T07:04:14.311Z,15.45
2023-09-15T07:06:42.655Z,15.58
2023-09-15T07:09:10.334Z,15.70
2023-09-15T07:11:39.268Z,15.74
2023-09-15T07:14:06.850Z,15.69
2023-09-15T07:16:35.386Z,15.75
2023-09-15T07:34:24.821Z,16.31
2023-09-15T07:36:52.788Z,16.50
2023-09-15T07:39:20.458Z,16.57
2023-09-15T07:41:48.167Z,16.55
2023-09-15T07:44:16.205Z,16.60
2023-09-15T07:46:43.999Z,16.65
2023-09-15T07:49:12.613Z,16.63
2023-09-15T07:51:41.655Z,16.64
2023-09-15T07:54:09.355Z,16.66
2023-09-15T07:56:40.150Z,16.86
2023-09-15T07:59:08.994Z,16.89
2023-09-15T08:01:36.828Z,16.91
2023-09-15T08:09:02.095Z,17.18
2023-09-15T08:11:35.456Z,17.29
2023-09-15T08:14:03.031Z,17.36
2023-09-15T08:16:31.014Z,17.51
2023-09-15T08:18:59.945Z,17.62
2023-09-15T08:21:27.769Z,17.80
2023-09-15T08:23:56.828Z,17.95
2023-09-15T08:26:30.481Z,18.09
2023-09-15T08:29:05.520Z,18.32
2023-09-15T08:31:33.324Z,18.42
2023-09-15T08:34:01.190Z,18.52
2023-09-15T08:36:28.868Z,18.70
2023-09-15T08:38:56.515Z,18.83
2023-09-15T08:41:29.317Z,19.03
2023-09-15T08:43:57.822Z,19.15
2023-09-15T08:46:27.466Z,19.26
2023-09-15T08:48:59.589Z,19.41
2023-09-15T08:51:29.104Z,19.55
2023-09-15T08:53:58.467Z,19.88
2023-09-15T08:56:26.750Z,20.05
2023-09-15T08:58:55.146Z,20.15
2023-09-15T09:01:23.441Z,20.28
2023-09-15T09:03:52.695Z,20.38
2023-09-15T09:06:24.047Z,20.51
2023-09-15T09:08:52.053Z,20.69
2023-09-15T09:11:19.931Z,21.05
2023-09-15T09:13:52.950Z,21.22
2023-09-15T09:16:21.717Z,21.48
2023-09-15T09:18:58.490Z,21.54
2023-09-15T09:21:27.474Z,21.69
2023-09-15T09:23:55.612Z,21.82
2023-09-15T09:26:23.400Z,21.97
2023-09-15T09:28:55.389Z,22.20
2023-09-15T09:31:25.452Z,22.37
2023-09-15T09:33:53.617Z,22.52
2023-09-15T09:36:22.875Z,22.71
2023-09-15T09:38:52.164Z,22.81
2023-09-15T09:41:21.376Z,22.93
2023-09-15T09:43:50.365Z,23.03
2023-09-15T09:46:20.503Z,23.20
2023-09-15T09:48:49.531Z,23.27
2023-09-15T09:51:18.593Z,23.33
2023-09-15T09:53:48.415Z,23.34
2023-09-15T09:56:18.397Z,23.57
2023-09-15T09:58:46.287Z,23.77
2023-09-15T10:01:15.154Z,23.98
2023-09-15T10:03:43.315Z,24.10
2023-09-15T10:06:11.127Z,23.90
2023-09-15T10:08:42.578Z,23.97
2023-09-15T10:11:12.120Z,24.15
2023-09-15T10:13:41.111Z,24.37
2023-09-15T10:16:08.779Z,24.55
2023-09-15T10:18:37.234Z,24.63
2023-09-15T10:21:05.414Z,24.83
2023-09-15T10:23:33.042Z,24.78
2023-09-15T10:26:04.813Z,24.84
2023-09-15T10:31:08.279Z,25.19
2023-09-15T10:33:40.976Z,25.07
2023-09-15T10:36:13.255Z,25.05
2023-09-15T10:38:42.657Z,25.11
2023-09-15T10:41:12.226Z,25.29
2023-09-15T10:43:51.429Z,25.17
2023-09-15T10:46:19.212Z,25.24
2023-09-15T10:48:49.198Z,25.46
2023-09-15T10:51:19.342Z,25.66
2023-09-15T10:53:48.319Z,26.01
2023-09-15T10:56:17.489Z,26.22
2023-09-15T10:58:48.334Z,26.34
2023-09-15T11:01:18.543Z,26.54
2023-09-15T11:03:47.077Z,26.81
2023-09-15T11:06:17.101Z,27.02
2023-09-15T11:08:44.824Z,27.09
2023-09-15T11:11:12.496Z,27.16
2023-09-15T11:13:42.406Z,27.28
2023-09-15T11:16:11.208Z,27.19
2023-09-15T11:18:41.135Z,27.15
2023-09-15T11:21:09.010Z,27.44
2023-09-15T11:23:39.221Z,27.67
2023-09-15T11:28:40.702Z,27.86
2023-09-15T11:31:11.692Z,28.05
2023-09-15T11:33:45.260Z,28.30
2023-09-15T11:36:15.365Z,28.56
2023-09-15T11:38:46.206Z,28.77
2023-09-15T11:41:14.400Z,28.80
2023-09-15T11:43:44.179Z,28.94
2023-09-15T11:46:13.274Z,29.23
2023-09-15T11:48:41.713Z,29.58
2023-09-15T11:51:11.852Z,29.82
2023-09-15T11:53:39.600Z,30.15
2023-09-15T11:56:07.842Z,30.43
2023-09-15T11:58:35.849Z,30.55
2023-09-15T12:01:04.491Z,30.90
2023-09-15T12:03:32.698Z,30.59
2023-09-15T12:06:02.046Z,30.93
2023-09-15T12:08:31.160Z,31.46
2023-09-15T12:11:11.608Z,31.59
2023-09-15T12:13:40.818Z,31.66
2023-09-15T12:16:09.552Z,32.17
2023-09-15T12:18:38.262Z,32.27
2023-09-15T12:21:11.844Z,32.97
2023-09-15T12:23:44.192Z,33.31
2023-09-15T12:26:13.450Z,33.33
2023-09-15T12:28:44.225Z,33.87
2023-09-15T12:31:17.160Z,33.96
2023-09-15T12:33:44.869Z,34.19
2023-09-15T12:36:14.015Z,34.06
2023-09-15T12:38:42.996Z,34.25
2023-09-15T12:41:10.659Z,34.29
2023-09-15T12:43:38.345Z,34.46
2023-09-15T12:46:06.152Z,34.14
2023-09-15T12:48:33.992Z,34.44
2023-09-15T12:51:01.720Z,34.35
2023-09-15T12:53:29.378Z,34.64
2023-09-15T12:56:01.248Z,33.93
2023-09-15T12:58:28.863Z,34.19
2023-09-15T13:00:57.096Z,34.86
2023-09-15T13:03:26.249Z,34.71
2023-09-15T13:05:54.181Z,35.21
2023-09-15T13:08:22.588Z,35.67
2023-09-15T13:10:50.296Z,36.06
2023-09-15T13:13:19.357Z,36.40
2023-09-15T13:15:47.087Z,37.05
2023-09-15T13:18:14.850Z,37.33
2023-09-15T13:20:42.563Z,38.02
2023-09-15T13:23:10.372Z,38.43
2023-09-15T13:25:37.983Z,39.12
2023-09-15T13:28:06.593Z,38.86
2023-09-15T13:30:36.442Z,39.59
2023-09-15T13:33:04.390Z,38.92
2023-09-15T13:35:32.243Z,39.10
2023-09-15T13:37:59.943Z,39.29
2023-09-15T13:40:28.901Z,39.74
2023-09-15T13:42:57.809Z,39.42
2023-09-15T13:45:25.687Z,40.34
2023-09-15T13:47:55.006Z,41.05
2023-09-15T13:50:22.667Z,41.54
2023-09-15T13:52:51.002Z,41.77
2023-09-15T13:55:19.136Z,42.27
2023-09-15T13:57:46.827Z,41.43
2023-09-15T14:00:14.776Z,42.50
2023-09-15T14:02:42.632Z,43.25
2023-09-15T14:05:12.102Z,43.70
2023-09-15T14:07:39.803Z,43.87
2023-09-15T14:10:07.895Z,44.70
2023-09-15T14:12:35.713Z,44.56
2023-09-15T14:15:04.149Z,43.86
2023-09-15T14:17:31.854Z,44.13
2023-09-15T14:19:59.658Z,44.45
2023-09-15T14:22:30.815Z,43.55
2023-09-15T14:24:59.846Z,43.40
2023-09-15T14:27:27.701Z,44.26
2023-09-15T14:29:55.403Z,44.11
2023-09-15T14:32:23.133Z,44.35
2023-09-15T14:34:50.741Z,44.78
2023-09-15T14:37:18.684Z,45.09
2023-09-15T14:39:47.674Z,44.81
2023-09-15T14:42:15.417Z,45.48
2023-09-15T14:44:43.042Z,44.68
2023-09-15T14:47:10.743Z,44.78
2023-09-15T14:49:39.110Z,45.14
2023-09-15T14:52:07.099Z,42.85
2023-09-15T14:54:34.886Z,42.88
2023-09-15T14:57:04.466Z,42.27
2023-09-15T14:59:32.105Z,43.83
2023-09-15T15:01:59.940Z,44.47
2023-09-15T15:04:27.667Z,44.02
2023-09-15T15:06:55.568Z,44.04
2023-09-15T15:09:23.341Z,43.25
2023-09-15T15:11:51.005Z,44.41
2023-09-15T15:14:19.980Z,45.06
2023-09-15T15:16:47.822Z,45.76
2023-09-15T15:19:16.249Z,45.88
2023-09-15T15:21:44.840Z,45.17
2023-09-15T15:24:12.594Z,44.69
2023-09-15T15:26:40.329Z,44.08
2023-09-15T15:29:08.007Z,43.95
2023-09-15T15:31:37.526Z,43.32
2023-09-15T15:34:05.523Z,43.52
2023-09-15T15:36:33.470Z,43.44
2023-09-15T15:39:01.128Z,43.24
2023-09-15T15:41:28.776Z,43.88
2023-09-15T15:43:56.428Z,44.44
2023-09-15T15:46:24.092Z,44.67
2023-09-15T15:48:53.092Z,43.01
2023-09-15T15:51:20.926Z,44.13
2023-09-15T15:53:48.607Z,43.74
2023-09-15T15:56:16.333Z,43.95
2023-09-15T15:58:44.037Z,43.80
2023-09-15T16:01:12.316Z,43.95
2023-09-15T16:03:40.193Z,42.68
2023-09-15T16:06:09.291Z,43.48
2023-09-15T16:08:38.159Z,44.09
2023-09-15T16:11:06.099Z,44.53
2023-09-15T16:13:37.879Z,44.87
2023-09-15T16:16:06.311Z,44.64
2023-09-15T16:18:34.311Z,44.32
2023-09-15T16:21:02.014Z,44.21
2023-09-15T16:23:31.150Z,44.15
2023-09-15T16:26:00.797Z,43.98
2023-09-15T16:29:01.751Z,43.20
2023-09-15T16:31:29.499Z,41.69
2023-09-15T16:33:57.119Z,40.48
2023-09-15T16:36:24.773Z,39.54
2023-09-15T16:38:57.023Z,39.31
2023-09-15T16:41:24.666Z,38.93
2023-09-15T16:43:52.549Z,38.20
2023-09-15T16:46:20.499Z,37.77
2023-09-15T16:48:48.267Z,37.12
2023-09-15T16:51:17.212Z,37.51
2023-09-15T16:53:44.804Z,37.07
2023-09-15T16:56:14.656Z,37.32
2023-09-15T16:58:42.263Z,37.15
2023-09-15T17:01:09.968Z,36.91
2023-09-15T17:03:37.711Z,36.69
2023-09-15T17:06:05.506Z,35.86
2023-09-15T17:08:33.102Z,35.39
2023-09-15T17:11:02.903Z,34.58
2023-09-15T17:13:33.243Z,34.06
2023-09-15T17:16:00.952Z,33.19
2023-09-15T17:18:28.613Z,32.58
2023-09-15T17:20:56.213Z,31.86
2023-09-15T17:23:23.834Z,31.32
2023-09-15T17:25:52.042Z,30.81
2023-09-15T17:28:20.892Z,30.14
2023-09-15T17:30:49.892Z,29.72
2023-09-15T17:33:17.541Z,29.22
2023-09-15T17:35:45.279Z,28.75
2023-09-15T17:38:14.095Z,28.26
2023-09-15T17:40:41.694Z,27.90
2023-09-15T17:43:09.363Z,27.41
2023-09-15T17:45:37.055Z,27.12
2023-09-15T17:48:06.558Z,26.61
2023-09-15T17:50:34.328Z,26.37
2023-09-15T17:53:01.925Z,26.12
2023-09-15T17:55:30.250Z,25.90
2023-09-15T17:57:58.076Z,25.72
2023-09-15T18:00:26.828Z,25.42
2023-09-15T18:02:57.536Z,25.14
2023-09-15T18:05:28.353Z,24.93
2023-09-15T18:07:56.345Z,24.77
2023-09-15T18:10:24.247Z,24.56
2023-09-15T18:12:53.254Z,24.34
2023-09-15T18:15:21.140Z,24.06
2023-09-15T18:17:49.489Z,23.89
2023-09-15T18:20:17.541Z,23.79
2023-09-15T18:22:46.911Z,23.61
2023-09-15T18:25:14.529Z,23.56
2023-09-15T18:27:42.903Z,23.36
2023-09-15T18:30:11.266Z,23.18
2023-09-15T18:32:38.998Z,23.08
2023-09-15T18:35:07.887Z,22.96
2023-09-15T18:37:35.545Z,22.88
2023-09-15T18:40:05.211Z,22.75
2023-09-15T18:42:32.866Z,22.66
2023-09-15T18:45:00.562Z,22.53
2023-09-15T18:47:28.227Z,22.46
2023-09-15T18:49:56.936Z,22.37
2023-09-15T18:52:24.544Z,22.23
2023-09-15T18:54:52.233Z,22.15
2023-09-15T18:57:21.223Z,22.03
2023-09-15T18:59:48.842Z,21.94
2023-09-15T19:02:16.489Z,21.85
2023-09-15T19:04:44.109Z,21.82
2023-09-15T19:07:12.020Z,21.72
2023-09-15T19:09:39.774Z,21.67
2023-09-15T19:12:09.160Z,21.60
2023-09-15T19:14:38.594Z,21.53
2023-09-15T19:17:06.443Z,21.42
2023-09-15T19:19:34.227Z,21.37
2023-09-15T19:22:01.859Z,21.30
2023-09-15T19:24:30.875Z,21.29
2023-09-15T19:26:58.527Z,21.23
2023-09-15T19:29:27.400Z,21.18
2023-09-15T19:31:56.689Z,21.15
2023-09-15T19:34:24.363Z,21.09
2023-09-15T19:36:52.208Z,21.02
2023-09-15T19:39:19.842Z,20.99
2023-09-15T19:41:47.793Z,20.92
2023-09-15T19:44:16.620Z,20.82
2023-09-15T19:46:44.379Z,20.76
2023-09-15T19:49:13.373Z,20.72
2023-09-15T19:51:43.205Z,20.69
2023-09-15T19:54:10.882Z,20.61
2023-09-15T19:56:38.530Z,20.55
2023-09-15T19:59:06.289Z,20.50
2023-09-15T20:01:34.035Z,20.49
2023-09-15T20:04:01.768Z,20.44
2023-09-15T20:06:30.747Z,20.41
2023-09-15T20:08:59.882Z,20.36
2023-09-15T20:11:27.549Z,20.32
2023-09-15T20:13:56.234Z,20.29
2023-09-15T20:16:23.844Z,20.21
2023-09-15T20:18:51.783Z,20.16
2023-09-15T20:21:19.668Z,20.10
2023-09-15T20:23:48.814Z,20.03
2023-09-15T20:26:16.652Z,19.96
2023-09-15T20:28:44.396Z,19.93
2023-09-15T20:31:12.309Z,19.87
2023-09-15T20:33:40.467Z,19.82
2023-09-15T20:36:08.192Z,19.76
2023-09-15T20:38:36.128Z,19.71
2023-09-15T20:41:05.590Z,19.67
2023-09-15T20:43:33.438Z,19.70
2023-09-15T20:46:01.369Z,19.70
2023-09-15T20:48:29.022Z,19.65
2023-09-15T20:50:56.743Z,19.60
2023-09-15T20:53:24.402Z,19.56
2023-09-15T20:55:52.075Z,19.54
2023-09-15T20:58:21.091Z,19.53
2023-09-15T21:00:53.043Z,19.49
2023-09-15T21:03:20.775Z,19.46
2023-09-15T21:05:55.706Z,19.44
2023-09-15T21:08:23.792Z,19.38
2023-09-15T21:10:51.806Z,19.36
2023-09-15T21:13:20.918Z,19.30
2023-09-15T21:15:49.795Z,19.27
2023-09-15T21:18:18.614Z,19.22
2023-09-15T21:20:46.292Z,19.19
2023-09-15T21:23:15.199Z,19.16
2023-09-15T21:25:43.308Z,19.15
2023-09-15T21:28:10.975Z,19.12
2023-09-15T21:30:40.024Z,19.03
2023-09-15T21:33:07.757Z,18.99
2023-09-15T21:35:36.115Z,18.97
2023-09-15T21:38:04.288Z,18.94
2023-09-15T21:40:33.447Z,18.90
2023-09-15T21:43:01.209Z,18.86
2023-09-15T21:45:28.886Z,18.89
2023-09-15T21:47:58.420Z,18.85
2023-09-15T21:50:26.331Z,18.80
2023-09-15T21:52:54.015Z,18.82
2023-09-15T21:55:21.638Z,18.87
2023-09-15T21:57:49.969Z,18.83
2023-09-15T22:00:26.917Z,18.70
2023-09-15T22:02:57.911Z,18.69
2023-09-15T22:05:28.521Z,18.68
2023-09-15T22:07:56.982Z,18.68
2023-09-15T22:10:24.762Z,18.63
2023-09-15T22:12:52.833Z,18.63
2023-09-15T22:15:20.624Z,18.65
2023-09-15T22:17:48.303Z,18.71
2023-09-15T22:20:16.572Z,18.71
2023-09-15T22:22:46.498Z,18.74
2023-09-15T22:25:14.349Z,18.75
2023-09-15T22:27:41.983Z,18.73
2023-09-15T22:30:11.968Z,18.72
2023-09-15T22:32:39.605Z,18.72
2023-09-15T22:35:08.451Z,18.70
2023-09-15T22:37:37.117Z,18.75
2023-09-15T22:40:10.497Z,18.75
2023-09-15T22:42:39.550Z,18.72
2023-09-15T22:45:08.570Z,18.68
2023-09-15T22:47:38.247Z,18.65
2023-09-15T22:50:07.233Z,18.63
2023-09-15T22:52:35.207Z,18.63
2023-09-15T22:55:03.512Z,18.65
2023-09-15T22:57:32.699Z,18.63
2023-09-15T23:00:00.372Z,18.62
2023-09-15T23:02:28.599Z,18.62
2023-09-15T23:04:59.636Z,18.59
2023-09-15T23:07:27.235Z,18.62
2023-09-15T23:09:55.029Z,18.59
2023-09-15T23:12:22.667Z,18.55
2023-09-15T23:14:51.596Z,18.52
2023-09-15T23:17:19.189Z,18.50
2023-09-15T23:19:46.789Z,18.54
2023-09-15T23:22:15.059Z,18.52
2023-09-15T23:24:42.751Z,18.51
2023-09-15T23:27:10.374Z,18.44
2023-09-15T23:29:38.004Z,18.44
2023-09-15T23:32:07.800Z,18.39
2023-09-15T23:34:35.437Z,18.42
2023-09-15T23:37:03.083Z,18.43
2023-09-15T23:39:30.787Z,18.41
2023-09-15T23:41:58.357Z,18.44
2023-09-15T23:44:25.925Z,18.43
2023-09-15T23:46:55.010Z,18.41
2023-09-15T23:49:24.366Z,18.40
2023-09-15T23:51:52.288Z,18.40
2023-09-15T23:54:20.135Z,18.38
2023-09-15T23:56:47.777Z,18.34
2023-09-15T23:59:15.437Z,18.31
